sensor_id;sensor_type;location;lat;lon;timestamp;temperature;humidity
15815;DHT22;8008;50.024;8.172;2023-08-07T03:00:50;13.70;99.90
15815;DHT22;8008;50.024;8.172;2023-08-07T03:03:18;13.70;99.90
15815;DHT22;8008;50.024;8.172;2023-08-07T03:05:50;13.70;99.90
15815;DHT22;8008;50.024;8.172;2023-08-07T03:08:18;13.70;99.90
15815;DHT22;8008;50.024;8.172;2023-08-07T03:10:50;13.60;99.90
15815;DHT22;8008;50.024;8.172;2023-08-07T03:13:19;13.60;99.90
15815;DHT22;8008;50.024;8.172;2023-08-07T03:15:47;13.60;99.90
15815;DHT22;8008;50.024;8.172;2023-08-07T03:18:18;13.60;99.90
15815;DHT22;8008;50.024;8.172;2023-08-07T03:20:46;13.60;99.90
15815;DHT22;8008;50.024;8.172;2023-08-07T03:23:14;13.60;99.90
15815;DHT22;8008;50.024;8.172;2023-08-07T03:25:42;13.60;99.90
15815;DHT22;8008;50.024;8.172;2023-08-07T03:28:10;13.70;99.90
15815;DHT22;8008;50.024;8.172;2023-08-07T03:30:38;13.70;99.90
15815;DHT22;8008;50.024;8.172;2023-08-07T03:33:06;13.70;99.90
15815;DHT22;8008;50.024;8.172;2023-08-07T03:35:36;13.80;99.90
15815;DHT22;8008;50.024;8.172;2023-08-07T03:38:04;13.80;99.90
15815;DHT22;8008;50.024;8.172;2023-08-07T03:40:33;13.90;99.90
15815;DHT22;8008;50.024;8.172;2023-08-07T03:43:02;13.90;99.90
15815;DHT22;8008;50.024;8.172;2023-08-07T03:45:31;13.90;99.90
15815;DHT22;8008;50.024;8.172;2023-08-07T03:47:59;13.90;99.90
15815;DHT22;8008;50.024;8.172;2023-08-07T03:50:28;13.90;99.90
15815;DHT22;8008;50.024;8.172;2023-08-07T03:52:58;13.90;99.90
15815;DHT22;8008;50.024;8.172;2023-08-07T03:55:27;13.90;99.90
15815;DHT22;8008;50.024;8.172;2023-08-07T03:57:55;13.90;99.90
15815;DHT22;8008;50.024;8.172;2023-08-07T04:00:23;13.90;99.90
15815;DHT22;8008;50.024;8.172;2023-08-07T04:02:51;13.90;99.90
15815;DHT22;8008;50.024;8.172;2023-08-07T04:05:19;13.90;99.90
15815;DHT22;8008;50.024;8.172;2023-08-07T04:07:47;13.90;99.90
15815;DHT22;8008;50.024;8.172;2023-08-07T04:10:16;13.90;99.90
15815;DHT22;8008;50.024;8.172;2023-08-07T04:12:44;13.80;99.90
15815;DHT22;8008;50.024;8.172;2023-08-07T04:15:12;13.90;99.90
15815;DHT22;8008;50.024;8.172;2023-08-07T04:17:41;13.90;99.90
15815;DHT22;8008;50.024;8.172;2023-08-07T04:20:09;13.80;99.90
15815;DHT22;8008;50.024;8.172;2023-08-07T04:22:38;13.80;99.90
15815;DHT22;8008;50.024;8.172;2023-08-07T04:25:06;13.80;99.90
15815;DHT22;8008;50.024;8.172;2023-08-07T04:27:36;13.80;99.90
15815;DHT22;8008;50.024;8.172;2023-08-07T04:30:05;13.80;99.90
15815;DHT22;8008;50.024;8.172;2023-08-07T04:32:33;13.80;99.90
15815;DHT22;8008;50.024;8.172;2023-08-07T04:35:01;13.80;99.90
15815;DHT22;8008;50.024;8.172;2023-08-07T04:37:29;13.80;99.90
15815;DHT22;8008;50.024;8.172;2023-08-07T04:39:58;13.80;99.90
15815;DHT22;8008;50.024;8.172;2023-08-07T04:42:27;13.80;99.90
15815;DHT22;8008;50.024;8.172;2023-08-07T04:44:56;13.80;99.90
15815;DHT22;8008;50.024;8.172;2023-08-07T04:47:24;13.80;99.90
15815;DHT22;8008;50.024;8.172;2023-08-07T04:49:52;13.90;99.90
15815;DHT22;8008;50.024;8.172;2023-08-07T04:52:20;13.90;99.90
15815;DHT22;8008;50.024;8.172;2023-08-07T04:54:52;13.90;99.90
15815;DHT22;8008;50.024;8.172;2023-08-07T04:57:20;13.90;99.90
15815;DHT22;8008;50.024;8.172;2023-08-07T04:59:48;13.90;99.90
15815;DHT22;8008;50.024;8.172;2023-08-07T05:02:18;13.90;99.90
15815;DHT22;8008;50.024;8.172;2023-08-07T05:04:46;13.90;99.90
15815;DHT22;8008;50.024;8.172;2023-08-07T05:07:14;13.90;99.90
15815;DHT22;8008;50.024;8.172;2023-08-07T05:09:42;13.90;99.90
15815;DHT22;8008;50.024;8.172;2023-08-07T05:12:10;14.00;99.90
15815;DHT22;8008;50.024;8.172;2023-08-07T05:14:38;14.00;99.90
15815;DHT22;8008;50.024;8.172;2023-08-07T05:17:06;13.90;99.90
15815;DHT22;8008;50.024;8.172;2023-08-07T05:19:35;14.00;99.90
15815;DHT22;8008;50.024;8.172;2023-08-07T05:22:04;14.00;99.90
15815;DHT22;8008;50.024;8.172;2023-08-07T05:24:32;14.00;99.90
15815;DHT22;8008;50.024;8.172;2023-08-07T05:27:07;14.00;99.90
15815;DHT22;8008;50.024;8.172;2023-08-07T05:29:35;14.00;99.90
15815;DHT22;8008;50.024;8.172;2023-08-07T05:32:10;13.90;99.90
15815;DHT22;8008;50.024;8.172;2023-08-07T05:34:40;13.90;99.90
15815;DHT22;8008;50.024;8.172;2023-08-07T05:37:08;13.90;99.90
15815;DHT22;8008;50.024;8.172;2023-08-07T05:39:36;13.90;99.90
15815;DHT22;8008;50.024;8.172;2023-08-07T05:42:04;13.90;99.90
15815;DHT22;8008;50.024;8.172;2023-08-07T05:44:34;13.90;99.90
15815;DHT22;8008;50.024;8.172;2023-08-07T05:47:02;13.90;99.90
15815;DHT22;8008;50.024;8.172;2023-08-07T05:49:30;13.90;99.90
15815;DHT22;8008;50.024;8.172;2023-08-07T05:51:59;13.90;99.90
15815;DHT22;8008;50.024;8.172;2023-08-07T05:54:27;13.90;99.90
15815;DHT22;8008;50.024;8.172;2023-08-07T05:56:55;13.90;99.90
15815;DHT22;8008;50.024;8.172;2023-08-07T05:59:23;13.90;99.90
15815;DHT22;8008;50.024;8.172;2023-08-07T06:01:51;13.90;99.90
15815;DHT22;8008;50.024;8.172;2023-08-07T06:04:22;14.00;99.90
15815;DHT22;8008;50.024;8.172;2023-08-07T06:06:50;14.00;99.90
15815;DHT22;8008;50.024;8.172;2023-08-07T06:09:19;14.00;99.90
15815;DHT22;8008;50.024;8.172;2023-08-07T06:11:48;14.00;99.90
15815;DHT22;8008;50.024;8.172;2023-08-07T06:14:16;14.00;99.90
15815;DHT22;8008;50.024;8.172;2023-08-07T06:16:44;14.00;99.90
15815;DHT22;8008;50.024;8.172;2023-08-07T06:19:12;14.00;99.90
15815;DHT22;8008;50.024;8.172;2023-08-07T06:21:56;14.10;99.90
15815;DHT22;8008;50.024;8.172;2023-08-07T06:24:26;14.10;99.90
15815;DHT22;8008;50.024;8.172;2023-08-07T06:26:54;14.10;99.90
15815;DHT22;8008;50.024;8.172;2023-08-07T06:29:22;14.10;99.90
15815;DHT22;8008;50.024;8.172;2023-08-07T06:31:50;14.10;99.90
15815;DHT22;8008;50.024;8.172;2023-08-07T06:34:18;14.10;99.90
15815;DHT22;8008;50.024;8.172;2023-08-07T06:36:46;14.10;99.90
15815;DHT22;8008;50.024;8.172;2023-08-07T06:39:14;14.20;99.90
15815;DHT22;8008;50.024;8.172;2023-08-07T06:41:43;14.20;99.90
15815;DHT22;8008;50.024;8.172;2023-08-07T06:44:13;14.20;99.90
15815;DHT22;8008;50.024;8.172;2023-08-07T06:46:41;14.20;99.90
15815;DHT22;8008;50.024;8.172;2023-08-07T06:49:09;14.20;99.90
15815;DHT22;8008;50.024;8.172;2023-08-07T06:51:37;14.30;99.90
15815;DHT22;8008;50.024;8.172;2023-08-07T06:54:05;14.30;99.90
15815;DHT22;8008;50.024;8.172;2023-08-07T06:56:33;14.30;99.90
15815;DHT22;8008;50.024;8.172;2023-08-07T06:59:02;14.30;99.90
15815;DHT22;8008;50.024;8.172;2023-08-07T07:01:30;14.30;99.90
15815;DHT22;8008;50.024;8.172;2023-08-07T07:03:59;14.30;99.90
15815;DHT22;8008;50.024;8.172;2023-08-07T07:06:27;14.30;99.90
15815;DHT22;8008;50.024;8.172;2023-08-07T07:08:54;14.40;99.90
15815;DHT22;8008;50.024;8.172;2023-08-07T07:11:23;14.40;99.90
15815;DHT22;8008;50.024;8.172;2023-08-07T07:13:51;14.50;99.90
15815;DHT22;8008;50.024;8.172;2023-08-07T07:16:21;14.40;99.90
15815;DHT22;8008;50.024;8.172;2023-08-07T07:18:50;14.50;99.90
15815;DHT22;8008;50.024;8.172;2023-08-07T07:21:18;14.50;99.90
15815;DHT22;8008;50.024;8.172;2023-08-07T07:23:47;14.50;99.90
15815;DHT22;8008;50.024;8.172;2023-08-07T07:26:15;14.60;99.90
15815;DHT22;8008;50.024;8.172;2023-08-07T07:28:42;14.60;99.90
15815;DHT22;8008;50.024;8.172;2023-08-07T07:31:10;14.70;99.90
15815;DHT22;8008;50.024;8.172;2023-08-07T07:33:40;14.70;99.90
15815;DHT22;8008;50.024;8.172;2023-08-07T07:36:14;14.70;99.90
15815;DHT22;8008;50.024;8.172;2023-08-07T07:38:42;14.70;99.90
15815;DHT22;8008;50.024;8.172;2023-08-07T07:41:12;14.70;99.90
15815;DHT22;8008;50.024;8.172;2023-08-07T07:43:40;14.70;99.90
15815;DHT22;8008;50.024;8.172;2023-08-07T07:46:09;14.70;99.90
15815;DHT22;8008;50.024;8.172;2023-08-07T07:48:37;14.70;99.90
15815;DHT22;8008;50.024;8.172;2023-08-07T07:51:07;14.70;99.90
15815;DHT22;8008;50.024;8.172;2023-08-07T07:53:35;14.70;99.90
15815;DHT22;8008;50.024;8.172;2023-08-07T07:56:03;14.70;99.90
15815;DHT22;8008;50.024;8.172;2023-08-07T07:58:31;14.70;99.90
15815;DHT22;8008;50.024;8.172;2023-08-07T08:00:59;14.70;99.90
15815;DHT22;8008;50.024;8.172;2023-08-07T08:03:27;14.80;99.90
15815;DHT22;8008;50.024;8.172;2023-08-07T08:05:56;14.80;99.90
15815;DHT22;8008;50.024;8.172;2023-08-07T08:08:26;14.70;99.90
15815;DHT22;8008;50.024;8.172;2023-08-07T08:10:54;14.80;99.90
15815;DHT22;8008;50.024;8.172;2023-08-07T08:13:22;14.80;99.90
15815;DHT22;8008;50.024;8.172;2023-08-07T08:15:52;14.90;99.90
15815;DHT22;8008;50.024;8.172;2023-08-07T08:18:20;14.90;99.90
15815;DHT22;8008;50.024;8.172;2023-08-07T08:20:48;14.90;99.90
15815;DHT22;8008;50.024;8.172;2023-08-07T08:23:16;15.00;99.90
15815;DHT22;8008;50.024;8.172;2023-08-07T08:25:45;15.00;99.90
15815;DHT22;8008;50.024;8.172;2023-08-07T08:28:13;15.10;99.90
15815;DHT22;8008;50.024;8.172;2023-08-07T08:30:41;15.00;99.90
15815;DHT22;8008;50.024;8.172;2023-08-07T08:33:09;15.10;99.90
15815;DHT22;8008;50.024;8.172;2023-08-07T08:35:39;15.10;99.90
15815;DHT22;8008;50.024;8.172;2023-08-07T08:38:07;15.20;99.90
15815;DHT22;8008;50.024;8.172;2023-08-07T08:40:36;15.10;99.90
15815;DHT22;8008;50.024;8.172;2023-08-07T08:43:06;15.10;99.90
15815;DHT22;8008;50.024;8.172;2023-08-07T08:45:37;15.10;99.90
15815;DHT22;8008;50.024;8.172;2023-08-07T08:48:07;15.10;99.90
15815;DHT22;8008;50.024;8.172;2023-08-07T08:50:43;15.10;99.90
15815;DHT22;8008;50.024;8.172;2023-08-07T08:53:12;15.10;99.90
15815;DHT22;8008;50.024;8.172;2023-08-07T08:55:40;15.10;99.90
15815;DHT22;8008;50.024;8.172;2023-08-07T08:58:15;15.10;99.90
15815;DHT22;8008;50.024;8.172;2023-08-07T09:00:44;15.10;99.90
15815;DHT22;8008;50.024;8.172;2023-08-07T09:03:12;15.00;99.90
15815;DHT22;8008;50.024;8.172;2023-08-07T09:05:41;15.00;99.90
15815;DHT22;8008;50.024;8.172;2023-08-07T09:08:09;14.90;99.90
15815;DHT22;8008;50.024;8.172;2023-08-07T09:10:38;14.90;99.90
15815;DHT22;8008;50.024;8.172;2023-08-07T09:13:12;14.90;99.90
15815;DHT22;8008;50.024;8.172;2023-08-07T09:15:43;14.90;99.90
15815;DHT22;8008;50.024;8.172;2023-08-07T09:18:17;14.90;99.90
15815;DHT22;8008;50.024;8.172;2023-08-07T09:20:46;14.90;99.90
15815;DHT22;8008;50.024;8.172;2023-08-07T09:23:15;14.90;99.90
15815;DHT22;8008;50.024;8.172;2023-08-07T09:25:44;14.80;99.90
15815;DHT22;8008;50.024;8.172;2023-08-07T09:28:12;14.90;99.90
15815;DHT22;8008;50.024;8.172;2023-08-07T09:30:43;14.90;99.90
15815;DHT22;8008;50.024;8.172;2023-08-07T09:33:11;14.90;99.90
15815;DHT22;8008;50.024;8.172;2023-08-07T09:35:40;14.90;99.90
15815;DHT22;8008;50.024;8.172;2023-08-07T09:38:08;14.90;99.90
15815;DHT22;8008;50.024;8.172;2023-08-07T09:40:36;14.90;99.90
15815;DHT22;8008;50.024;8.172;2023-08-07T09:43:04;14.90;99.90
15815;DHT22;8008;50.024;8.172;2023-08-07T09:45:32;15.00;99.90
15815;DHT22;8008;50.024;8.172;2023-08-07T09:48:05;15.00;99.90
15815;DHT22;8008;50.024;8.172;2023-08-07T09:50:34;14.90;99.90
15815;DHT22;8008;50.024;8.172;2023-08-07T09:53:02;15.00;99.90
15815;DHT22;8008;50.024;8.172;2023-08-07T09:55:30;15.10;99.90
15815;DHT22;8008;50.024;8.172;2023-08-07T09:58:00;15.20;99.90
15815;DHT22;8008;50.024;8.172;2023-08-07T10:00:33;15.20;99.90
15815;DHT22;8008;50.024;8.172;2023-08-07T10:03:01;15.30;99.90
15815;DHT22;8008;50.024;8.172;2023-08-07T10:05:31;15.40;99.90
15815;DHT22;8008;50.024;8.172;2023-08-07T10:08:00;15.50;99.90
15815;DHT22;8008;50.024;8.172;2023-08-07T10:10:28;15.50;99.90
15815;DHT22;8008;50.024;8.172;2023-08-07T10:12:57;15.60;99.90
15815;DHT22;8008;50.024;8.172;2023-08-07T10:15:28;15.80;99.90
15815;DHT22;8008;50.024;8.172;2023-08-07T10:17:57;16.00;99.90
15815;DHT22;8008;50.024;8.172;2023-08-07T10:20:27;16.10;99.90
15815;DHT22;8008;50.024;8.172;2023-08-07T10:23:00;16.30;99.90
15815;DHT22;8008;50.024;8.172;2023-08-07T10:25:31;16.50;99.90
15815;DHT22;8008;50.024;8.172;2023-08-07T10:28:01;16.70;99.90
15815;DHT22;8008;50.024;8.172;2023-08-07T10:30:29;16.80;99.90
15815;DHT22;8008;50.024;8.172;2023-08-07T10:32:59;16.90;99.90
15815;DHT22;8008;50.024;8.172;2023-08-07T10:35:30;17.00;99.90
15815;DHT22;8008;50.024;8.172;2023-08-07T10:38:07;17.20;99.90
15815;DHT22;8008;50.024;8.172;2023-08-07T10:40:58;17.20;99.90
15815;DHT22;8008;50.024;8.172;2023-08-07T10:43:26;17.20;99.90
15815;DHT22;8008;50.024;8.172;2023-08-07T10:46:02;17.20;99.90
15815;DHT22;8008;50.024;8.172;2023-08-07T10:48:38;17.30;99.90
15815;DHT22;8008;50.024;8.172;2023-08-07T10:51:06;17.10;99.90
15815;DHT22;8008;50.024;8.172;2023-08-07T10:53:39;17.10;99.90
15815;DHT22;8008;50.024;8.172;2023-08-07T10:56:10;17.30;99.90
15815;DHT22;8008;50.024;8.172;2023-08-07T10:58:40;17.40;99.90
15815;DHT22;8008;50.024;8.172;2023-08-07T11:01:18;17.40;99.90
15815;DHT22;8008;50.024;8.172;2023-08-07T11:03:49;17.40;99.90
15815;DHT22;8008;50.024;8.172;2023-08-07T11:06:22;17.20;99.90
15815;DHT22;8008;50.024;8.172;2023-08-07T11:08:51;17.30;99.90
15815;DHT22;8008;50.024;8.172;2023-08-07T11:11:20;17.30;99.90
15815;DHT22;8008;50.024;8.172;2023-08-07T11:13:48;17.40;99.90
15815;DHT22;8008;50.024;8.172;2023-08-07T11:16:17;17.40;99.90
15815;DHT22;8008;50.024;8.172;2023-08-07T11:18:48;17.40;99.90
15815;DHT22;8008;50.024;8.172;2023-08-07T11:21:18;17.60;99.90
15815;DHT22;8008;50.024;8.172;2023-08-07T11:23:47;17.70;99.90
15815;DHT22;8008;50.024;8.172;2023-08-07T11:26:17;17.80;99.90
15815;DHT22;8008;50.024;8.172;2023-08-07T11:28:49;17.70;99.90
15815;DHT22;8008;50.024;8.172;2023-08-07T11:31:17;17.80;99.90
15815;DHT22;8008;50.024;8.172;2023-08-07T11:33:45;17.70;99.90
15815;DHT22;8008;50.024;8.172;2023-08-07T11:36:14;17.70;99.90
15815;DHT22;8008;50.024;8.172;2023-08-07T11:38:43;17.60;99.90
15815;DHT22;8008;50.024;8.172;2023-08-07T11:41:13;17.60;99.90
15815;DHT22;8008;50.024;8.172;2023-08-07T11:43:43;17.60;99.90
15815;DHT22;8008;50.024;8.172;2023-08-07T11:46:12;17.50;99.90
15815;DHT22;8008;50.024;8.172;2023-08-07T11:48:42;17.60;99.90
15815;DHT22;8008;50.024;8.172;2023-08-07T11:51:10;17.60;99.90
15815;DHT22;8008;50.024;8.172;2023-08-07T11:53:40;17.60;99.90
15815;DHT22;8008;50.024;8.172;2023-08-07T11:56:10;17.70;99.90
15815;DHT22;8008;50.024;8.172;2023-08-07T11:58:43;17.70;99.90
15815;DHT22;8008;50.024;8.172;2023-08-07T12:01:14;17.90;99.90
15815;DHT22;8008;50.024;8.172;2023-08-07T12:03:52;17.90;99.90
15815;DHT22;8008;50.024;8.172;2023-08-07T12:06:21;18.40;99.90
15815;DHT22;8008;50.024;8.172;2023-08-07T12:08:50;18.90;99.90
15815;DHT22;8008;50.024;8.172;2023-08-07T12:11:19;19.20;99.90
15815;DHT22;8008;50.024;8.172;2023-08-07T12:13:49;19.10;99.70
15815;DHT22;8008;50.024;8.172;2023-08-07T12:16:17;19.10;99.50
15815;DHT22;8008;50.024;8.172;2023-08-07T12:18:47;19.10;98.10
15815;DHT22;8008;50.024;8.172;2023-08-07T12:21:16;19.10;98.40
15815;DHT22;8008;50.024;8.172;2023-08-07T12:23:45;19.10;98.90
15815;DHT22;8008;50.024;8.172;2023-08-07T12:26:14;19.10;99.10
15815;DHT22;8008;50.024;8.172;2023-08-07T12:28:43;19.30;98.80
15815;DHT22;8008;50.024;8.172;2023-08-07T12:31:12;19.50;97.40
15815;DHT22;8008;50.024;8.172;2023-08-07T12:33:40;19.50;97.30
15815;DHT22;8008;50.024;8.172;2023-08-07T12:36:08;19.50;96.90
15815;DHT22;8008;50.024;8.172;2023-08-07T12:38:40;19.60;96.50
15815;DHT22;8008;50.024;8.172;2023-08-07T12:41:08;20.00;96.00
15815;DHT22;8008;50.024;8.172;2023-08-07T12:43:56;20.40;95.00
15815;DHT22;8008;50.024;8.172;2023-08-07T12:46:26;21.10;93.80
15815;DHT22;8008;50.024;8.172;2023-08-07T12:48:58;21.70;93.50
15815;DHT22;8008;50.024;8.172;2023-08-07T12:51:26;22.70;93.00
15815;DHT22;8008;50.024;8.172;2023-08-07T12:53:54;23.50;91.10
15815;DHT22;8008;50.024;8.172;2023-08-07T12:56:22;23.10;88.60
15815;DHT22;8008;50.024;8.172;2023-08-07T12:58:50;22.30;89.70
15815;DHT22;8008;50.024;8.172;2023-08-07T13:01:18;21.70;91.00
15815;DHT22;8008;50.024;8.172;2023-08-07T13:03:47;20.90;89.70
15815;DHT22;8008;50.024;8.172;2023-08-07T13:06:15;20.30;90.10
15815;DHT22;8008;50.024;8.172;2023-08-07T13:08:43;19.90;89.70
15815;DHT22;8008;50.024;8.172;2023-08-07T13:11:12;19.70;91.10
15815;DHT22;8008;50.024;8.172;2023-08-07T13:13:41;19.50;91.50
15815;DHT22;8008;50.024;8.172;2023-08-07T13:16:12;19.40;91.80
15815;DHT22;8008;50.024;8.172;2023-08-07T13:18:40;19.70;91.50
15815;DHT22;8008;50.024;8.172;2023-08-07T13:21:09;20.20;91.30
15815;DHT22;8008;50.024;8.172;2023-08-07T13:23:37;21.50;91.10
15815;DHT22;8008;50.024;8.172;2023-08-07T13:26:05;21.90;90.30
15815;DHT22;8008;50.024;8.172;2023-08-07T13:28:33;23.00;90.10
15815;DHT22;8008;50.024;8.172;2023-08-07T13:31:01;23.80;84.30
15815;DHT22;8008;50.024;8.172;2023-08-07T13:33:29;24.10;83.30
15815;DHT22;8008;50.024;8.172;2023-08-07T13:35:57;24.70;84.30
15815;DHT22;8008;50.024;8.172;2023-08-07T13:38:26;25.30;79.80
15815;DHT22;8008;50.024;8.172;2023-08-07T13:40:54;25.80;78.90
15815;DHT22;8008;50.024;8.172;2023-08-07T13:43:22;25.70;78.70
15815;DHT22;8008;50.024;8.172;2023-08-07T13:45:50;26.00;77.30
15815;DHT22;8008;50.024;8.172;2023-08-07T13:48:18;25.80;74.90
15815;DHT22;8008;50.024;8.172;2023-08-07T13:50:46;25.30;74.40
15815;DHT22;8008;50.024;8.172;2023-08-07T13:53:14;25.30;74.30
15815;DHT22;8008;50.024;8.172;2023-08-07T13:55:44;25.50;75.00
15815;DHT22;8008;50.024;8.172;2023-08-07T13:58:12;25.40;75.00
15815;DHT22;8008;50.024;8.172;2023-08-07T14:00:42;26.10;74.20
15815;DHT22;8008;50.024;8.172;2023-08-07T14:03:10;26.50;73.40
15815;DHT22;8008;50.024;8.172;2023-08-07T14:05:40;26.10;72.10
15815;DHT22;8008;50.024;8.172;2023-08-07T14:08:08;25.20;73.10
15815;DHT22;8008;50.024;8.172;2023-08-07T14:10:37;24.70;73.20
15815;DHT22;8008;50.024;8.172;2023-08-07T14:13:09;25.20;70.50
15815;DHT22;8008;50.024;8.172;2023-08-07T14:15:38;26.00;70.60
15815;DHT22;8008;50.024;8.172;2023-08-07T14:18:06;26.00;70.90
15815;DHT22;8008;50.024;8.172;2023-08-07T14:20:34;24.40;70.20
15815;DHT22;8008;50.024;8.172;2023-08-07T14:23:22;23.30;71.10
15815;DHT22;8008;50.024;8.172;2023-08-07T14:25:51;22.90;71.60
15815;DHT22;8008;50.024;8.172;2023-08-07T14:28:21;22.60;72.10
15815;DHT22;8008;50.024;8.172;2023-08-07T14:30:49;22.00;72.30
15815;DHT22;8008;50.024;8.172;2023-08-07T14:33:17;21.50;71.60
15815;DHT22;8008;50.024;8.172;2023-08-07T14:35:45;21.40;73.20
15815;DHT22;8008;50.024;8.172;2023-08-07T14:38:13;21.30;74.40
15815;DHT22;8008;50.024;8.172;2023-08-07T14:40:41;21.40;75.10
15815;DHT22;8008;50.024;8.172;2023-08-07T14:43:09;21.30;72.30
15815;DHT22;8008;50.024;8.172;2023-08-07T14:45:39;21.20;73.60
15815;DHT22;8008;50.024;8.172;2023-08-07T14:48:07;22.70;74.30
15815;DHT22;8008;50.024;8.172;2023-08-07T14:50:35;23.70;71.40
15815;DHT22;8008;50.024;8.172;2023-08-07T14:53:03;23.40;71.70
15815;DHT22;8008;50.024;8.172;2023-08-07T14:55:31;22.60;72.60
15815;DHT22;8008;50.024;8.172;2023-08-07T14:57:59;22.10;73.40
15815;DHT22;8008;50.024;8.172;2023-08-07T15:00:28;21.80;72.90
15815;DHT22;8008;50.024;8.172;2023-08-07T15:02:58;22.40;74.40
15815;DHT22;8008;50.024;8.172;2023-08-07T15:05:26;24.20;73.20
15815;DHT22;8008;50.024;8.172;2023-08-07T15:07:53;25.70;68.70
15815;DHT22;8008;50.024;8.172;2023-08-07T15:10:22;26.60;68.60
15815;DHT22;8008;50.024;8.172;2023-08-07T15:12:50;27.50;65.00
15815;DHT22;8008;50.024;8.172;2023-08-07T15:15:18;28.80;63.90
15815;DHT22;8008;50.024;8.172;2023-08-07T15:17:46;29.00;61.90
15815;DHT22;8008;50.024;8.172;2023-08-07T15:20:15;28.80;60.80
15815;DHT22;8008;50.024;8.172;2023-08-07T15:22:43;29.30;58.40
15815;DHT22;8008;50.024;8.172;2023-08-07T15:25:11;29.20;56.60
15815;DHT22;8008;50.024;8.172;2023-08-07T15:27:39;28.80;58.30
15815;DHT22;8008;50.024;8.172;2023-08-07T15:30:08;29.00;57.10
15815;DHT22;8008;50.024;8.172;2023-08-07T15:32:37;29.30;55.90
15815;DHT22;8008;50.024;8.172;2023-08-07T15:35:08;28.60;57.20
15815;DHT22;8008;50.024;8.172;2023-08-07T15:37:37;28.90;56.30
15815;DHT22;8008;50.024;8.172;2023-08-07T15:40:06;29.90;57.20
15815;DHT22;8008;50.024;8.172;2023-08-07T15:42:35;30.30;56.00
15815;DHT22;8008;50.024;8.172;2023-08-07T15:45:03;30.10;55.50
15815;DHT22;8008;50.024;8.172;2023-08-07T15:47:31;28.30;55.30
15815;DHT22;8008;50.024;8.172;2023-08-07T15:49:59;26.90;55.70
15815;DHT22;8008;50.024;8.172;2023-08-07T15:52:27;26.00;57.60
15815;DHT22;8008;50.024;8.172;2023-08-07T15:54:57;25.40;57.40
15815;DHT22;8008;50.024;8.172;2023-08-07T15:57:25;24.70;59.60
15815;DHT22;8008;50.024;8.172;2023-08-07T15:59:53;24.30;61.00
15815;DHT22;8008;50.024;8.172;2023-08-07T16:02:21;24.10;60.50
15815;DHT22;8008;50.024;8.172;2023-08-07T16:04:49;23.70;60.10
15815;DHT22;8008;50.024;8.172;2023-08-07T16:07:17;23.10;61.20
15815;DHT22;8008;50.024;8.172;2023-08-07T16:09:45;23.00;61.90
15815;DHT22;8008;50.024;8.172;2023-08-07T16:12:14;22.80;61.30
15815;DHT22;8008;50.024;8.172;2023-08-07T16:14:44;22.50;61.30
15815;DHT22;8008;50.024;8.172;2023-08-07T16:17:12;22.20;62.00
15815;DHT22;8008;50.024;8.172;2023-08-07T16:19:40;22.10;63.40
15815;DHT22;8008;50.024;8.172;2023-08-07T16:22:08;22.00;62.70
15815;DHT22;8008;50.024;8.172;2023-08-07T16:24:36;22.00;63.70
15815;DHT22;8008;50.024;8.172;2023-08-07T16:27:04;22.00;64.40
15815;DHT22;8008;50.024;8.172;2023-08-07T16:29:34;21.90;64.30
15815;DHT22;8008;50.024;8.172;2023-08-07T16:32:02;21.80;63.40
15815;DHT22;8008;50.024;8.172;2023-08-07T16:34:31;21.80;63.40
15815;DHT22;8008;50.024;8.172;2023-08-07T16:36:59;21.70;64.20
15815;DHT22;8008;50.024;8.172;2023-08-07T16:39:27;21.70;64.10
15815;DHT22;8008;50.024;8.172;2023-08-07T16:41:55;21.60;63.80
15815;DHT22;8008;50.024;8.172;2023-08-07T16:44:23;21.60;65.00
15815;DHT22;8008;50.024;8.172;2023-08-07T16:46:53;21.50;64.50
15815;DHT22;8008;50.024;8.172;2023-08-07T16:49:20;21.30;63.00
15815;DHT22;8008;50.024;8.172;2023-08-07T16:51:48;21.10;63.00
15815;DHT22;8008;50.024;8.172;2023-08-07T16:54:20;21.00;63.60
15815;DHT22;8008;50.024;8.172;2023-08-07T16:56:48;21.20;64.90
15815;DHT22;8008;50.024;8.172;2023-08-07T16:59:16;21.30;64.80
15815;DHT22;8008;50.024;8.172;2023-08-07T17:01:44;21.30;64.50
15815;DHT22;8008;50.024;8.172;2023-08-07T17:04:13;21.30;65.50
15815;DHT22;8008;50.024;8.172;2023-08-07T17:06:41;21.40;66.60
15815;DHT22;8008;50.024;8.172;2023-08-07T17:09:09;21.30;66.00
15815;DHT22;8008;50.024;8.172;2023-08-07T17:11:37;21.30;66.50
15815;DHT22;8008;50.024;8.172;2023-08-07T17:14:05;21.30;67.20
15815;DHT22;8008;50.024;8.172;2023-08-07T17:16:33;21.30;67.00
15815;DHT22;8008;50.024;8.172;2023-08-07T17:19:01;21.30;67.00
15815;DHT22;8008;50.024;8.172;2023-08-07T17:21:31;21.30;67.10
15815;DHT22;8008;50.024;8.172;2023-08-07T17:23:59;21.20;67.40
15815;DHT22;8008;50.024;8.172;2023-08-07T17:26:27;21.10;67.50
15815;DHT22;8008;50.024;8.172;2023-08-07T17:28:56;21.00;67.00
15815;DHT22;8008;50.024;8.172;2023-08-07T17:31:28;21.00;67.20
15815;DHT22;8008;50.024;8.172;2023-08-07T17:33:56;20.90;64.70
15815;DHT22;8008;50.024;8.172;2023-08-07T17:36:24;20.80;66.70
15815;DHT22;8008;50.024;8.172;2023-08-07T17:38:55;20.70;65.80
15815;DHT22;8008;50.024;8.172;2023-08-07T17:41:26;20.60;65.80
15815;DHT22;8008;50.024;8.172;2023-08-07T17:43:54;20.60;66.20
15815;DHT22;8008;50.024;8.172;2023-08-07T17:46:22;20.70;66.10
15815;DHT22;8008;50.024;8.172;2023-08-07T17:48:50;20.60;67.10
15815;DHT22;8008;50.024;8.172;2023-08-07T17:51:18;20.50;67.50
15815;DHT22;8008;50.024;8.172;2023-08-07T17:53:47;20.50;68.20
15815;DHT22;8008;50.024;8.172;2023-08-07T17:56:16;20.40;69.00
15815;DHT22;8008;50.024;8.172;2023-08-07T17:58:44;20.30;69.50
15815;DHT22;8008;50.024;8.172;2023-08-07T18:01:12;20.20;70.70
15815;DHT22;8008;50.024;8.172;2023-08-07T18:03:40;20.20;70.60
15815;DHT22;8008;50.024;8.172;2023-08-07T18:06:08;20.10;69.90
15815;DHT22;8008;50.024;8.172;2023-08-07T18:08:36;20.10;71.40
15815;DHT22;8008;50.024;8.172;2023-08-07T18:11:04;19.90;71.30
15815;DHT22;8008;50.024;8.172;2023-08-07T18:13:33;19.90;71.80
15815;DHT22;8008;50.024;8.172;2023-08-07T18:16:01;19.90;72.40
15815;DHT22;8008;50.024;8.172;2023-08-07T18:18:29;19.80;72.50
15815;DHT22;8008;50.024;8.172;2023-08-07T18:20:57;19.70;73.70
15815;DHT22;8008;50.024;8.172;2023-08-07T18:23:26;19.60;73.90
15815;DHT22;8008;50.024;8.172;2023-08-07T18:25:54;19.50;74.10
15815;DHT22;8008;50.024;8.172;2023-08-07T18:28:22;19.40;74.30
15815;DHT22;8008;50.024;8.172;2023-08-07T18:30:51;19.30;74.30
15815;DHT22;8008;50.024;8.172;2023-08-07T18:33:19;19.40;74.30
15815;DHT22;8008;50.024;8.172;2023-08-07T18:35:47;19.40;74.90
15815;DHT22;8008;50.024;8.172;2023-08-07T18:38:15;19.40;75.20
15815;DHT22;8008;50.024;8.172;2023-08-07T18:40:43;19.40;75.30
15815;DHT22;8008;50.024;8.172;2023-08-07T18:43:11;19.40;74.80
15815;DHT22;8008;50.024;8.172;2023-08-07T18:45:39;19.20;75.10
15815;DHT22;8008;50.024;8.172;2023-08-07T18:48:08;19.10;75.30
15815;DHT22;8008;50.024;8.172;2023-08-07T18:50:36;19.00;75.70
15815;DHT22;8008;50.024;8.172;2023-08-07T18:53:04;19.00;76.60
15815;DHT22;8008;50.024;8.172;2023-08-07T18:55:32;19.00;76.80